createdAt,value
2023-03-29T00:00:37.240Z,-2.84
2023-03-29T00:03:05.905Z,-2.89
2023-03-29T00:05:35.632Z,-2.79
2023-03-29T00:08:04.604Z,-2.86
2023-03-29T00:10:34.124Z,-2.89
2023-03-29T00:13:03.049Z,-2.90
2023-03-29T00:15:31.563Z,-2.86
2023-03-29T00:18:01.314Z,-2.90
2023-03-29T00:20:30.104Z,-2.86
2023-03-29T00:22:58.322Z,-2.84
2023-03-29T00:25:26.775Z,-2.81
2023-03-29T00:27:54.981Z,-2.82
2023-03-29T00:30:26.473Z,-2.80
2023-03-29T00:32:54.904Z,-2.74
2023-03-29T00:35:24.535Z,-2.69
2023-03-29T00:37:53.382Z,-2.69
2023-03-29T00:40:21.727Z,-2.70
2023-03-29T00:42:50.381Z,-2.67
2023-03-29T00:45:20.187Z,-2.67
2023-03-29T00:47:50.343Z,-2.66
2023-03-29T00:50:22.696Z,-2.69
2023-03-29T00:52:56.492Z,-2.69
2023-03-29T00:55:26.027Z,-2.69
2023-03-29T00:57:55.867Z,-2.70
2023-03-29T01:00:27.036Z,-2.70
2023-03-29T01:02:59.903Z,-2.67
2023-03-29T01:05:32.202Z,-2.69
2023-03-29T01:08:03.808Z,-2.72
2023-03-29T01:10:36.454Z,-2.70
2023-03-29T01:13:07.387Z,-2.74
2023-03-29T01:15:35.898Z,-2.75
2023-03-29T01:18:04.235Z,-2.75
2023-03-29T01:20:43.552Z,-2.81
2023-03-29T01:23:27.140Z,-2.80
2023-03-29T01:26:01.109Z,-2.81
2023-03-29T01:28:32.687Z,-2.86
2023-03-29T01:31:07.593Z,-2.83
2023-03-29T01:33:38.747Z,-2.86
2023-03-29T01:36:11.909Z,-2.91
2023-03-29T01:38:43.502Z,-2.93
2023-03-29T01:41:12.240Z,-2.93
2023-03-29T01:43:44.234Z,-2.98
2023-03-29T01:46:15.748Z,-3.00
2023-03-29T01:48:48.071Z,-2.98
2023-03-29T01:51:18.762Z,-2.97
2023-03-29T01:53:48.331Z,-2.97
2023-03-29T01:56:20.022Z,-2.94
2023-03-29T01:58:53.849Z,-3.01
2023-03-29T02:01:26.235Z,-2.99
2023-03-29T02:03:57.914Z,-3.04
2023-03-29T02:06:28.330Z,-2.98
2023-03-29T02:08:57.012Z,-2.96
2023-03-29T02:11:27.218Z,-2.94
2023-03-29T02:13:56.932Z,-2.94
2023-03-29T02:16:25.211Z,-2.95
2023-03-29T02:18:56.512Z,-2.95
2023-03-29T02:21:26.931Z,-2.97
2023-03-29T02:23:57.303Z,-2.98
2023-03-29T02:26:26.441Z,-3.00
2023-03-29T02:28:54.706Z,-2.99
2023-03-29T02:31:26.469Z,-2.96
2023-03-29T02:33:59.670Z,-2.96
2023-03-29T02:36:31.377Z,-2.96
2023-03-29T02:39:02.101Z,-3.00
2023-03-29T02:41:30.687Z,-2.97
2023-03-29T02:44:02.510Z,-3.00
2023-03-29T02:46:32.373Z,-3.01
2023-03-29T02:49:01.343Z,-3.05
2023-03-29T02:51:31.439Z,-3.07
2023-03-29T02:54:03.225Z,-3.05
2023-03-29T02:56:31.881Z,-3.08
2023-03-29T02:59:00.186Z,-3.10
2023-03-29T03:01:29.341Z,-3.09
2023-03-29T03:03:59.399Z,-3.07
2023-03-29T03:06:29.370Z,-3.06
2023-03-29T03:08:57.892Z,-3.06
2023-03-29T03:11:27.311Z,-3.06
2023-03-29T03:13:56.047Z,-3.05
2023-03-29T03:16:24.703Z,-3.04
2023-03-29T03:18:55.086Z,-3.00
2023-03-29T03:21:24.886Z,-2.98
2023-03-29T03:23:54.574Z,-2.99
2023-03-29T03:26:25.049Z,-2.98
2023-03-29T03:28:53.518Z,-2.98
2023-03-29T03:31:54.242Z,-2.96
2023-03-29T03:34:41.283Z,-2.94
2023-03-29T03:37:12.545Z,-2.95
2023-03-29T03:39:41.040Z,-2.93
2023-03-29T03:42:11.491Z,-2.95
2023-03-29T03:44:44.221Z,-2.87
2023-03-29T03:47:38.767Z,-2.96
2023-03-29T03:50:21.746Z,-2.98
2023-03-29T03:52:52.471Z,-2.97
2023-03-29T03:55:22.350Z,-2.94
2023-03-29T03:58:04.537Z,-2.96
2023-03-29T04:00:33.535Z,-2.94
2023-03-29T04:03:24.737Z,-2.96
2023-03-29T04:05:53.770Z,-2.93
2023-03-29T04:08:27.515Z,-2.96
2023-03-29T04:11:15.617Z,-2.97
2023-03-29T04:13:44.471Z,-2.96
2023-03-29T04:16:42.589Z,-2.89
2023-03-29T04:19:31.274Z,-2.91
2023-03-29T04:21:59.778Z,-2.90
2023-03-29T04:24:29.622Z,-2.92
2023-03-29T04:27:16.679Z,-2.89
2023-03-29T04:29:45.470Z,-2.88
2023-03-29T04:32:22.766Z,-2.85
2023-03-29T04:34:58.274Z,-2.82
2023-03-29T04:37:27.893Z,-2.81
2023-03-29T04:40:00.443Z,-2.85
2023-03-29T04:42:32.508Z,-2.86
2023-03-29T04:45:01.219Z,-2.82
2023-03-29T04:47:48.160Z,-2.83
2023-03-29T04:50:19.296Z,-2.85
2023-03-29T04:52:48.166Z,-2.83
2023-03-29T04:55:17.886Z,-2.83
2023-03-29T04:57:55.801Z,-2.84
2023-03-29T05:00:38.354Z,-2.84
2023-03-29T05:03:11.725Z,-2.83
2023-03-29T05:05:44.328Z,-2.83
2023-03-29T05:08:12.747Z,-2.75
2023-03-29T05:11:00.897Z,-2.75
2023-03-29T05:13:30.525Z,-2.74
2023-03-29T05:16:00.808Z,-2.70
2023-03-29T05:18:29.781Z,-2.63
2023-03-29T05:20:58.203Z,-2.71
2023-03-29T05:23:28.191Z,-2.75
2023-03-29T05:26:10.162Z,-2.71
2023-03-29T05:28:40.763Z,-2.71
2023-03-29T05:31:09.632Z,-2.74
2023-03-29T05:33:40.866Z,-2.75
2023-03-29T05:36:11.222Z,-2.78
2023-03-29T05:38:45.180Z,-2.76
2023-03-29T05:41:16.051Z,-2.79
2023-03-29T05:44:02.882Z,-2.78
2023-03-29T05:46:32.261Z,-2.79
2023-03-29T05:49:04.502Z,-2.79
2023-03-29T05:51:57.132Z,-2.84
2023-03-29T05:54:27.418Z,-2.78
2023-03-29T05:56:57.503Z,-2.75
2023-03-29T05:59:28.426Z,-2.68
2023-03-29T06:01:57.069Z,-2.74
2023-03-29T06:04:25.627Z,-2.72
2023-03-29T06:07:16.659Z,-2.63
2023-03-29T06:09:51.846Z,-2.56
2023-03-29T06:12:22.122Z,-2.51
2023-03-29T06:14:58.481Z,-2.48
2023-03-29T06:17:36.884Z,-2.55
2023-03-29T06:20:09.816Z,-2.49
2023-03-29T06:22:39.806Z,-2.49
2023-03-29T06:25:09.489Z,-2.47
2023-03-29T06:27:39.457Z,-2.44
2023-03-29T06:30:08.642Z,-2.41
2023-03-29T06:32:38.505Z,-2.33
2023-03-29T06:35:15.376Z,-2.27
2023-03-29T06:37:50.992Z,-2.34
2023-03-29T06:40:39.526Z,-2.31
2023-03-29T06:43:09.791Z,-2.32
2023-03-29T06:46:12.184Z,-2.28
2023-03-29T06:48:56.528Z,-2.20
2023-03-29T06:51:30.872Z,-2.16
2023-03-29T06:53:59.187Z,-2.22
2023-03-29T06:56:30.069Z,-2.26
2023-03-29T06:59:09.574Z,-2.09
2023-03-29T07:01:50.621Z,-2.16
2023-03-29T07:04:26.402Z,-2.21
2023-03-29T07:07:22.269Z,-2.18
2023-03-29T07:10:01.993Z,-2.20
2023-03-29T07:12:48.565Z,-2.27
2023-03-29T07:15:20.316Z,-2.23
2023-03-29T07:18:15.304Z,-2.23
2023-03-29T07:20:43.804Z,-2.29
2023-03-29T07:23:13.113Z,-2.29
2023-03-29T07:25:41.589Z,-2.22
2023-03-29T07:28:09.929Z,-2.20
2023-03-29T07:30:40.046Z,-2.14
2023-03-29T07:33:14.607Z,-2.16
2023-03-29T07:35:59.434Z,-2.19
2023-03-29T07:38:28.666Z,-2.17
2023-03-29T07:41:05.378Z,-2.15
2023-03-29T07:43:50.170Z,-2.12
2023-03-29T07:46:23.831Z,-2.16
2023-03-29T07:48:52.498Z,-2.11
2023-03-29T07:51:21.706Z,-2.10
2023-03-29T07:53:53.343Z,-2.05
2023-03-29T07:56:44.471Z,-2.10
2023-03-29T07:59:31.261Z,-1.98
2023-03-29T08:02:12.589Z,-1.94
2023-03-29T08:04:45.204Z,-1.83
2023-03-29T08:07:36.224Z,-1.88
2023-03-29T08:10:17.288Z,-1.89
2023-03-29T08:13:06.209Z,-1.81
2023-03-29T08:15:51.822Z,-1.81
2023-03-29T08:18:47.744Z,-1.76
2023-03-29T08:21:16.067Z,-1.73
2023-03-29T08:23:48.686Z,-1.67
2023-03-29T08:26:28.106Z,-1.69
2023-03-29T08:28:58.853Z,-1.66
2023-03-29T08:31:28.809Z,-1.60
2023-03-29T08:33:59.193Z,-1.60
2023-03-29T08:36:55.804Z,-1.65
2023-03-29T08:39:31.850Z,-1.62
2023-03-29T08:42:31.050Z,-1.57
2023-03-29T08:45:07.970Z,-1.61
2023-03-29T08:47:42.981Z,-1.61
2023-03-29T08:50:16.701Z,-1.56
2023-03-29T08:52:52.586Z,-1.59
2023-03-29T08:55:40.392Z,-1.60
2023-03-29T08:58:35.059Z,-1.55
2023-03-29T09:01:06.209Z,-1.49
2023-03-29T09:03:45.402Z,-1.49
2023-03-29T09:06:22.320Z,-1.54
2023-03-29T09:08:54.954Z,-1.49
2023-03-29T09:11:47.489Z,-1.54
2023-03-29T09:14:31.388Z,-1.53
2023-03-29T09:17:03.032Z,-1.57
2023-03-29T09:19:36.123Z,-1.46
2023-03-29T09:22:10.497Z,-1.39
2023-03-29T09:24:42.839Z,-1.40
2023-03-29T09:27:24.853Z,-1.37
2023-03-29T09:30:02.071Z,-1.23
2023-03-29T09:32:48.543Z,-1.17
2023-03-29T09:35:21.572Z,-1.18
2023-03-29T09:37:54.986Z,-1.12
2023-03-29T09:40:25.723Z,-1.21
2023-03-29T09:43:13.684Z,-1.32
2023-03-29T09:45:42.616Z,-1.27
2023-03-29T09:48:13.164Z,-1.22
2023-03-29T09:50:44.368Z,-1.17
2023-03-29T09:53:15.995Z,-1.14
2023-03-29T09:55:52.131Z,-1.08
2023-03-29T09:58:44.075Z,-0.97
2023-03-29T10:01:15.992Z,-0.93
2023-03-29T10:03:49.076Z,-1.08
2023-03-29T10:06:18.844Z,-1.15
2023-03-29T10:08:56.875Z,-1.16
2023-03-29T10:11:31.729Z,-1.23
2023-03-29T10:14:02.346Z,-1.21
2023-03-29T10:16:31.588Z,-1.17
2023-03-29T10:18:59.907Z,-1.11
2023-03-29T10:21:30.493Z,-1.12
2023-03-29T10:24:00.806Z,-1.04
2023-03-29T10:26:31.045Z,-1.14
2023-03-29T10:29:01.845Z,-1.24
2023-03-29T10:31:31.356Z,-1.23
2023-03-29T10:34:03.166Z,-1.32
2023-03-29T10:36:31.851Z,-1.29
2023-03-29T10:39:05.127Z,-1.33
2023-03-29T10:41:34.814Z,-1.28
2023-03-29T10:44:03.490Z,-1.26
2023-03-29T10:46:32.714Z,-1.26
2023-03-29T10:49:04.631Z,-1.21
2023-03-29T10:51:34.650Z,-1.18
2023-03-29T10:54:05.554Z,-1.08
2023-03-29T10:56:40.474Z,-1.17
2023-03-29T10:59:18.427Z,-1.22
2023-03-29T11:01:53.473Z,-1.19
2023-03-29T11:04:26.603Z,-1.10
2023-03-29T11:07:01.575Z,-1.22
2023-03-29T11:09:40.333Z,-1.19
2023-03-29T11:12:16.086Z,-1.15
2023-03-29T11:14:51.607Z,-1.01
2023-03-29T11:17:27.646Z,-1.01
2023-03-29T11:20:02.498Z,-1.09
2023-03-29T11:22:39.910Z,-1.03
2023-03-29T11:25:23.026Z,-1.01
2023-03-29T11:27:56.400Z,-0.90
2023-03-29T11:30:27.379Z,-0.94
2023-03-29T11:33:00.166Z,-0.87
2023-03-29T11:35:33.933Z,-0.90
2023-03-29T11:38:07.017Z,-0.83
2023-03-29T11:40:41.330Z,-0.74
2023-03-29T11:43:14.386Z,-0.72
2023-03-29T11:45:47.708Z,-0.71
2023-03-29T11:48:19.164Z,-0.48
2023-03-29T11:50:51.306Z,-0.56
2023-03-29T11:53:24.167Z,-0.51
2023-03-29T11:55:54.037Z,-0.44
2023-03-29T11:58:28.056Z,-0.30
2023-03-29T12:00:59.105Z,-0.43
2023-03-29T12:03:34.055Z,-0.49
2023-03-29T12:06:05.871Z,-0.52
2023-03-29T12:08:36.480Z,-0.59
2023-03-29T12:11:08.816Z,-0.59
2023-03-29T12:13:41.364Z,-0.57
2023-03-29T12:16:15.098Z,-0.45
2023-03-29T12:18:45.650Z,-0.50
2023-03-29T12:21:15.804Z,-0.39
2023-03-29T12:23:45.165Z,-0.44
2023-03-29T12:26:18.481Z,-0.43
2023-03-29T12:29:05.620Z,-0.60
2023-03-29T12:31:38.459Z,-0.69
2023-03-29T12:34:13.982Z,-0.67
2023-03-29T12:37:11.175Z,-0.70
2023-03-29T12:40:03.874Z,-0.65
2023-03-29T12:43:01.990Z,-0.53
2023-03-29T12:45:54.105Z,-0.53
2023-03-29T12:48:25.713Z,-0.49
2023-03-29T12:50:54.690Z,-0.53
2023-03-29T12:53:24.689Z,-0.49
2023-03-29T12:55:57.452Z,-0.51
2023-03-29T12:58:39.084Z,-0.51
2023-03-29T13:01:10.919Z,-0.52
2023-03-29T13:03:43.935Z,-0.42
2023-03-29T13:06:13.356Z,-0.43
2023-03-29T13:08:42.764Z,-0.39
2023-03-29T13:11:13.779Z,-0.36
2023-03-29T13:13:43.074Z,-0.33
2023-03-29T13:16:17.073Z,-0.36
2023-03-29T13:19:00.594Z,-0.26
2023-03-29T13:21:34.888Z,-0.32
2023-03-29T13:24:08.107Z,-0.36
2023-03-29T13:26:46.168Z,-0.57
2023-03-29T13:29:31.413Z,-0.61
2023-03-29T13:32:05.013Z,-0.48
2023-03-29T13:34:38.535Z,-0.48
2023-03-29T13:37:12.554Z,-0.38
2023-03-29T13:39:48.867Z,-0.31
2023-03-29T13:42:24.730Z,-0.36
2023-03-29T13:44:54.124Z,-0.35
2023-03-29T13:47:43.080Z,-0.37
2023-03-29T13:50:18.188Z,-0.46
2023-03-29T13:52:53.551Z,-0.51
2023-03-29T13:55:24.484Z,-0.58
2023-03-29T13:57:54.836Z,-0.51
2023-03-29T14:00:25.535Z,-0.51
2023-03-29T14:02:56.512Z,-0.60
2023-03-29T14:05:29.733Z,-0.59
2023-03-29T14:08:05.474Z,-0.51
2023-03-29T14:10:36.574Z,-0.47
2023-03-29T14:13:05.146Z,-0.49
2023-03-29T14:15:41.928Z,-0.58
2023-03-29T14:18:11.552Z,-0.49
2023-03-29T14:20:44.552Z,-0.41
2023-03-29T14:23:15.628Z,-0.42
2023-03-29T14:25:44.473Z,-0.43
2023-03-29T14:28:26.177Z,-0.54
2023-03-29T14:30:54.786Z,-0.51
2023-03-29T14:33:27.703Z,-0.48
2023-03-29T14:35:58.749Z,-0.49
2023-03-29T14:38:27.866Z,-0.41
2023-03-29T14:40:59.666Z,-0.35
2023-03-29T14:43:30.553Z,-0.28
2023-03-29T14:45:59.566Z,-0.31
2023-03-29T14:48:28.567Z,-0.30
2023-03-29T14:50:58.417Z,-0.35
2023-03-29T14:53:29.071Z,-0.47
2023-03-29T14:55:57.855Z,-0.51
2023-03-29T14:58:29.550Z,-0.49
2023-03-29T15:00:57.917Z,-0.39
2023-03-29T15:03:27.703Z,-0.37
2023-03-29T15:05:59.033Z,-0.29
2023-03-29T15:08:31.927Z,-0.29
2023-03-29T15:11:00.722Z,-0.31
2023-03-29T15:13:29.937Z,-0.28
2023-03-29T15:16:00.259Z,-0.31
2023-03-29T15:18:30.287Z,-0.38
2023-03-29T15:21:01.599Z,-0.41
2023-03-29T15:23:36.454Z,-0.45
2023-03-29T15:26:10.840Z,-0.41
2023-03-29T15:28:47.025Z,-0.47
2023-03-29T15:31:16.527Z,-0.50
2023-03-29T15:33:45.137Z,-0.51
2023-03-29T15:36:16.825Z,-0.55
2023-03-29T15:38:45.581Z,-0.61
2023-03-29T15:41:14.833Z,-0.68
2023-03-29T15:43:43.441Z,-0.74
2023-03-29T15:46:12.908Z,-0.80
2023-03-29T15:48:41.876Z,-0.83
2023-03-29T15:51:11.334Z,-0.87
2023-03-29T15:53:41.426Z,-0.88
2023-03-29T15:56:11.579Z,-0.85
2023-03-29T15:58:40.535Z,-0.93
2023-03-29T16:01:13.388Z,-0.92
2023-03-29T16:03:42.094Z,-0.96
2023-03-29T16:06:11.878Z,-0.99
2023-03-29T16:08:42.658Z,-1.02
2023-03-29T16:11:11.789Z,-1.03
2023-03-29T16:13:40.205Z,-1.09
2023-03-29T16:16:10.515Z,-1.13
2023-03-29T16:18:38.916Z,-1.17
2023-03-29T16:21:08.018Z,-1.21
2023-03-29T16:23:37.252Z,-1.23
2023-03-29T16:26:07.173Z,-1.29
2023-03-29T16:28:35.597Z,-1.30
2023-03-29T16:31:03.993Z,-1.37
2023-03-29T16:33:33.030Z,-1.38
2023-03-29T16:38:29.629Z,-1.52
2023-03-29T16:40:58.363Z,-1.62
2023-03-29T16:43:28.157Z,-1.68
2023-03-29T16:45:57.229Z,-1.67
2023-03-29T16:48:27.268Z,-1.77
2023-03-29T16:50:55.665Z,-1.73
2023-03-29T16:53:24.148Z,-1.77
2023-03-29T16:55:52.410Z,-1.83
2023-03-29T16:58:20.828Z,-1.82
2023-03-29T17:00:52.235Z,-1.82
2023-03-29T17:03:20.944Z,-1.89
2023-03-29T17:05:50.046Z,-1.93
2023-03-29T17:08:18.556Z,-1.96
2023-03-29T17:10:46.729Z,-2.02
2023-03-29T17:13:15.246Z,-2.02
2023-03-29T17:15:43.833Z,-2.03
2023-03-29T17:18:14.076Z,-2.10
2023-03-29T17:20:42.506Z,-2.11
2023-03-29T17:23:10.880Z,-2.17
2023-03-29T17:25:39.212Z,-2.16
2023-03-29T17:28:07.417Z,-2.19
2023-03-29T17:30:36.458Z,-2.23
2023-03-29T17:33:05.079Z,-2.26
2023-03-29T17:35:35.159Z,-2.27
2023-03-29T17:38:04.281Z,-2.27
2023-03-29T17:40:32.581Z,-2.28
2023-03-29T17:43:00.839Z,-2.31
2023-03-29T17:45:29.162Z,-2.32
2023-03-29T17:47:57.416Z,-2.36
2023-03-29T17:50:26.591Z,-2.45
2023-03-29T17:52:59.306Z,-2.50
2023-03-29T17:55:27.606Z,-2.57
2023-03-29T17:57:56.542Z,-2.72
2023-03-29T18:00:24.902Z,-2.76
2023-03-29T18:02:53.348Z,-2.88
2023-03-29T18:05:21.974Z,-2.92
2023-03-29T18:07:50.393Z,-2.79
2023-03-29T18:10:20.646Z,-2.89
2023-03-29T18:12:48.961Z,-2.93
2023-03-29T18:15:17.541Z,-2.94
2023-03-29T18:17:46.202Z,-2.93
2023-03-29T18:20:27.705Z,-2.95
2023-03-29T18:22:56.242Z,-2.92
2023-03-29T18:25:29.652Z,-2.92
2023-03-29T18:27:57.903Z,-2.94
2023-03-29T18:30:26.384Z,-2.95
2023-03-29T18:32:54.760Z,-2.99
2023-03-29T18:35:23.053Z,-3.06
2023-03-29T18:37:53.106Z,-3.08
2023-03-29T18:40:24.908Z,-3.13
2023-03-29T18:42:54.994Z,-3.25
2023-03-29T18:45:23.189Z,-3.31
2023-03-29T18:47:52.575Z,-3.29
2023-03-29T18:50:20.991Z,-3.31
2023-03-29T18:52:50.553Z,-3.32
2023-03-29T18:55:19.025Z,-3.39
2023-03-29T18:57:47.292Z,-3.41
2023-03-29T19:00:17.817Z,-3.41
2023-03-29T19:02:46.338Z,-3.41
2023-03-29T19:05:14.779Z,-3.42
2023-03-29T19:07:43.243Z,-3.53
2023-03-29T19:10:12.383Z,-3.47
2023-03-29T19:12:40.716Z,-3.44
2023-03-29T19:15:09.756Z,-3.46
2023-03-29T19:17:39.681Z,-3.56
2023-03-29T19:20:10.255Z,-3.58
2023-03-29T19:22:38.635Z,-3.57
2023-03-29T19:25:07.789Z,-3.62
2023-03-29T19:27:36.139Z,-3.65
2023-03-29T19:30:05.101Z,-3.63
2023-03-29T19:32:33.900Z,-3.69
2023-03-29T19:35:04.435Z,-3.72
2023-03-29T19:37:32.797Z,-3.82
2023-03-29T19:40:02.514Z,-3.85
2023-03-29T19:42:57.269Z,-3.92
2023-03-29T19:45:26.822Z,-4.01
2023-03-29T19:47:58.048Z,-4.00
2023-03-29T19:50:28.266Z,-3.91
2023-03-29T19:52:57.335Z,-3.96
2023-03-29T19:55:26.153Z,-3.90
2023-03-29T19:57:54.505Z,-3.85
2023-03-29T20:00:25.177Z,-3.82
2023-03-29T20:02:55.829Z,-3.76
2023-03-29T20:05:24.260Z,-3.77
2023-03-29T20:07:54.506Z,-3.77
2023-03-29T20:10:22.916Z,-3.77
2023-03-29T20:12:51.252Z,-3.78
2023-03-29T20:15:19.799Z,-3.80
2023-03-29T20:17:48.140Z,-3.76
2023-03-29T20:20:16.718Z,-3.74
2023-03-29T20:22:45.710Z,-3.73
2023-03-29T20:25:15.772Z,-3.83
2023-03-29T20:27:44.278Z,-3.96
2023-03-29T20:30:14.506Z,-4.05
2023-03-29T20:32:43.012Z,-4.13
2023-03-29T20:35:12.332Z,-4.13
2023-03-29T20:37:40.687Z,-4.25
2023-03-29T20:40:09.733Z,-4.18
2023-03-29T20:42:39.768Z,-4.30
2023-03-29T20:45:18.661Z,-4.25
2023-03-29T20:47:50.667Z,-4.26
2023-03-29T20:50:20.376Z,-4.38
2023-03-29T20:52:48.721Z,-4.28
2023-03-29T20:55:22.522Z,-4.37
2023-03-29T20:57:54.216Z,-4.38
2023-03-29T21:00:22.785Z,-4.39
2023-03-29T21:02:51.180Z,-4.41
2023-03-29T21:05:19.776Z,-4.40
2023-03-29T21:07:48.327Z,-4.27
2023-03-29T21:10:16.963Z,-4.22
2023-03-29T21:12:45.292Z,-4.11
2023-03-29T21:15:18.071Z,-4.20
2023-03-29T21:17:46.432Z,-4.17
2023-03-29T21:20:15.162Z,-3.96
2023-03-29T21:22:44.588Z,-3.90
2023-03-29T21:25:15.656Z,-3.77
2023-03-29T21:27:44.205Z,-3.73
2023-03-29T21:30:12.893Z,-3.90
2023-03-29T21:32:42.862Z,-3.83
2023-03-29T21:35:11.585Z,-4.05
2023-03-29T21:37:40.346Z,-4.19
2023-03-29T21:40:10.779Z,-4.32
2023-03-29T21:42:39.334Z,-4.22
2023-03-29T21:45:08.330Z,-3.89
2023-03-29T21:47:37.206Z,-3.84
2023-03-29T21:50:07.745Z,-3.91
2023-03-29T21:52:37.988Z,-3.86
2023-03-29T21:55:06.639Z,-3.85
2023-03-29T21:57:34.922Z,-4.04
2023-03-29T22:00:03.898Z,-4.30
2023-03-29T22:02:33.549Z,-4.19
2023-03-29T22:05:02.148Z,-4.32
2023-03-29T22:07:35.505Z,-4.23
2023-03-29T22:10:05.010Z,-4.51
2023-03-29T22:12:34.684Z,-4.32
2023-03-29T22:15:03.136Z,-4.38
2023-03-29T22:17:31.558Z,-4.26
2023-03-29T22:20:00.614Z,-4.06
2023-03-29T22:22:28.953Z,-4.03
2023-03-29T22:24:58.793Z,-3.90
2023-03-29T22:27:27.024Z,-3.98
2023-03-29T22:29:55.339Z,-4.15
2023-03-29T22:32:23.572Z,-4.22
2023-03-29T22:34:51.855Z,-4.14
2023-03-29T22:37:22.802Z,-4.08
2023-03-29T22:39:51.477Z,-4.07
2023-03-29T22:42:21.464Z,-4.38
2023-03-29T22:44:49.714Z,-4.25
2023-03-29T22:47:17.985Z,-4.28
2023-03-29T22:49:46.203Z,-4.53
2023-03-29T22:52:14.393Z,-4.56
2023-03-29T22:54:42.607Z,-4.66
2023-03-29T22:57:10.847Z,-4.91
2023-03-29T22:59:40.914Z,-5.31
2023-03-29T23:02:09.246Z,-5.50
2023-03-29T23:04:38.886Z,-5.34
2023-03-29T23:07:07.446Z,-5.56
2023-03-29T23:09:35.668Z,-5.55
2023-03-29T23:12:04.087Z,-5.59
2023-03-29T23:14:34.025Z,-5.73
2023-03-29T23:17:04.195Z,-5.77
2023-03-29T23:19:33.074Z,-5.68
2023-03-29T23:22:01.307Z,-5.42
2023-03-29T23:24:30.541Z,-5.28
2023-03-29T23:26:59.438Z,-5.25
2023-03-29T23:29:27.753Z,-5.48
2023-03-29T23:31:56.999Z,-5.54
2023-03-29T23:34:26.958Z,-5.71
2023-03-29T23:36:55.281Z,-5.76
2023-03-29T23:39:23.808Z,-5.78
2023-03-29T23:41:52.135Z,-5.71
2023-03-29T23:44:20.479Z,-5.85
2023-03-29T23:46:48.704Z,-5.82
2023-03-29T23:49:17.359Z,-5.79
2023-03-29T23:51:48.470Z,-5.66
2023-03-29T23:54:17.477Z,-5.52
2023-03-29T23:56:45.712Z,-5.34
2023-03-29T23:59:13.982Z,-5.24
